Time;durP1;ratioP1;P1;durP2;ratioP2;P2;SDS_P1;SDS_P2;PMS_P1;PMS_P2;Temp;Humidity;BMP_temperature;BMP_pressure;BME280_temperature;BME280_humidity;BME280_pressure;Samples;Min_cycle;Max_cycle;Signal;HPM_P1;HPM_P2
2021/05/25 00:00:20;;;;;;;4.15;2.75;;;;;;;;;;5053770;28;20215;-72
2021/05/25 00:02:46;;;;;;;5.65;3.47;;;;;;;;;;5062599;28;20236;-72
2021/05/25 00:05:15;;;;;;;3.63;3.33;;;;;;;;;;5052745;28;20554;-72
2021/05/25 00:07:41;;;;;;;3.45;3.10;;;;;;;;;;5062890;28;20217;-73
2021/05/25 00:10:07;;;;;;;4.78;3.40;;;;;;;;;;5052913;28;20197;-74
2021/05/25 00:12:34;;;;;;;3.55;3.25;;;;;;;;;;5053050;28;20172;-75
2021/05/25 00:15:00;;;;;;;3.95;3.60;;;;;;;;;;5065546;28;20179;-74
2021/05/25 00:17:26;;;;;;;4.20;3.80;;;;;;;;;;5058449;28;20181;-73
2021/05/25 00:19:52;;;;;;;3.92;3.55;;;;;;;;;;5053673;28;20224;-72
2021/05/25 00:22:18;;;;;;;4.50;3.97;;;;;;;;;;5063152;28;20614;-72
2021/05/25 00:24:44;;;;;;;4.32;3.90;;;;;;;;;;5051366;28;20658;-73
2021/05/25 00:27:10;;;;;;;7.07;4.10;;;;;;;;;;5052735;28;20177;-72
2021/05/25 00:29:36;;;;;;;4.30;3.78;;;;;;;;;;5056205;28;20194;-73
2021/05/25 00:32:02;;;;;;;5.38;3.85;;;;;;;;;;5053831;28;20181;-75
2021/05/25 00:34:28;;;;;;;4.03;3.35;;;;;;;;;;5057146;28;20700;-74
2021/05/25 00:36:54;;;;;;;5.82;3.30;;;;;;;;;;5061867;28;20185;-73
2021/05/25 00:39:20;;;;;;;3.93;3.30;;;;;;;;;;5052473;28;20198;-73
2021/05/25 00:41:46;;;;;;;3.72;3.42;;;;;;;;;;5052664;28;20761;-75
2021/05/25 00:44:12;;;;;;;3.83;3.53;;;;;;;;;;5052331;28;20250;-75
2021/05/25 00:46:38;;;;;;;4.20;3.70;;;;;;;;;;5052611;28;20232;-73
2021/05/25 00:49:05;;;;;;;5.25;3.28;;;;;;;;;;5068992;28;20459;-73
2021/05/25 00:51:31;;;;;;;3.50;3.20;;;;;;;;;;5072535;28;20168;-73
2021/05/25 00:53:57;;;;;;;3.70;3.40;;;;;;;;;;5066125;28;20605;-73
2021/05/25 00:56:24;;;;;;;3.72;3.30;;;;;;;;;;5052341;28;20215;-74
2021/05/25 00:58:51;;;;;;;3.40;3.10;;;;;;;;;;5067194;28;20185;-74
2021/05/25 01:01:17;;;;;;;3.63;3.33;;;;;;;;;;5080324;28;20586;-74
2021/05/25 01:03:43;;;;;;;3.72;3.35;;;;;;;;;;5060244;28;20507;-73
2021/05/25 01:06:09;;;;;;;3.80;3.45;;;;;;;;;;5086062;28;20199;-74
2021/05/25 01:08:38;;;;;;;7.25;3.20;;;;;;;;;;5070006;28;20181;-74
2021/05/25 01:11:06;;;;;;;3.70;3.40;;;;;;;;;;5064271;28;20267;-73
2021/05/25 01:16:11;;;;;;;3.42;3.13;;;;;;;;;;5066557;28;20564;-73
2021/05/25 01:18:37;;;;;;;3.53;3.25;;;;;;;;;;5058627;28;20223;-74
2021/05/25 01:21:06;;;;;;;3.97;3.67;;;;;;;;;;5065994;28;20558;-73
2021/05/25 01:23:34;;;;;;;3.75;3.42;;;;;;;;;;5072892;28;20532;-74
2021/05/25 01:26:00;;;;;;;4.65;3.63;;;;;;;;;;5067141;28;20190;-73
2021/05/25 01:28:26;;;;;;;4.90;4.40;;;;;;;;;;5072819;28;20229;-74
2021/05/25 01:30:53;;;;;;;4.30;4.00;;;;;;;;;;5058509;28;20206;-73
2021/05/25 01:33:20;;;;;;;6.95;3.80;;;;;;;;;;5052222;28;20503;-74
2021/05/25 01:35:46;;;;;;;4.15;3.75;;;;;;;;;;5070594;28;20220;-74
2021/05/25 01:38:13;;;;;;;4.15;3.83;;;;;;;;;;5071186;28;20172;-75
2021/05/25 01:40:39;;;;;;;4.85;4.45;;;;;;;;;;5055799;28;20197;-73
2021/05/25 01:43:05;;;;;;;5.28;3.70;;;;;;;;;;5080359;28;20190;-74
2021/05/25 01:45:32;;;;;;;4.85;4.32;;;;;;;;;;5071844;28;20231;-74
2021/05/25 01:47:59;;;;;;;5.65;4.30;;;;;;;;;;5079078;28;20699;-74
2021/05/25 01:50:26;;;;;;;4.93;3.58;;;;;;;;;;5055518;28;20197;-73
2021/05/25 01:52:57;;;;;;;5.00;4.60;;;;;;;;;;5055215;28;20177;-74
2021/05/25 01:55:29;;;;;;;4.50;4.10;;;;;;;;;;5079775;28;20172;-73
2021/05/25 01:57:55;;;;;;;5.25;4.75;;;;;;;;;;5072598;28;20548;-74
2021/05/25 02:00:22;;;;;;;4.75;4.18;;;;;;;;;;5072165;28;20546;-74
2021/05/25 02:02:48;;;;;;;5.85;4.60;;;;;;;;;;5055816;28;20185;-74
2021/05/25 02:05:14;;;;;;;4.03;3.72;;;;;;;;;;5062730;28;20217;-73
2021/05/25 02:07:40;;;;;;;4.50;4.20;;;;;;;;;;5054811;28;20185;-74
2021/05/25 02:10:06;;;;;;;5.20;4.78;;;;;;;;;;5060939;28;20208;-73
2021/05/25 02:12:32;;;;;;;4.90;4.40;;;;;;;;;;5080681;28;20177;-75
2021/05/25 02:14:58;;;;;;;5.55;5.05;;;;;;;;;;5066424;28;20194;-72
2021/05/25 02:17:28;;;;;;;5.65;5.15;;;;;;;;;;5080734;28;20555;-74
2021/05/25 02:19:54;;;;;;;4.82;4.38;;;;;;;;;;5062378;28;20204;-73
2021/05/25 02:22:20;;;;;;;4.55;4.07;;;;;;;;;;5073500;28;20808;-74
2021/05/25 02:24:46;;;;;;;4.85;4.55;;;;;;;;;;5069328;28;20275;-73
2021/05/25 02:27:12;;;;;;;5.57;4.80;;;;;;;;;;5064773;28;20180;-73
2021/05/25 02:29:37;;;;;;;4.93;4.53;;;;;;;;;;5085933;28;20196;-74
2021/05/25 02:32:04;;;;;;;5.03;4.60;;;;;;;;;;5055248;28;20519;-75
2021/05/25 02:34:30;;;;;;;5.20;4.80;;;;;;;;;;5065411;28;20422;-75
2021/05/25 02:36:56;;;;;;;5.60;5.10;;;;;;;;;;5074413;28;20177;-74
2021/05/25 02:39:22;;;;;;;5.50;5.00;;;;;;;;;;5074243;28;20605;-73
2021/05/25 02:41:48;;;;;;;5.25;4.85;;;;;;;;;;5055658;28;20466;-74
2021/05/25 02:44:14;;;;;;;4.22;3.92;;;;;;;;;;5061830;28;20203;-74
2021/05/25 02:46:40;;;;;;;4.45;4.05;;;;;;;;;;5068369;28;20189;-75
2021/05/25 02:49:06;;;;;;;4.00;3.43;;;;;;;;;;5060086;28;20515;-75
2021/05/25 02:51:32;;;;;;;3.70;3.40;;;;;;;;;;5054093;28;20412;-73
2021/05/25 02:53:58;;;;;;;3.75;3.35;;;;;;;;;;5058564;28;20421;-74
2021/05/25 02:56:23;;;;;;;4.57;3.63;;;;;;;;;;5055614;28;20643;-72
2021/05/25 02:58:51;;;;;;;4.70;3.80;;;;;;;;;;5067174;28;20410;-73
2021/05/25 03:01:17;;;;;;;4.10;3.80;;;;;;;;;;5074620;28;20418;-71
2021/05/25 03:03:43;;;;;;;4.00;3.70;;;;;;;;;;5065109;28;20646;-73
2021/05/25 03:06:09;;;;;;;3.90;3.60;;;;;;;;;;5053980;28;20200;-76
2021/05/25 03:08:35;;;;;;;4.07;3.78;;;;;;;;;;5063701;28;20184;-75
2021/05/25 03:11:01;;;;;;;4.90;4.50;;;;;;;;;;5072859;28;20193;-74
2021/05/25 03:13:27;;;;;;;5.13;4.33;;;;;;;;;;5054933;28;20180;-75
2021/05/25 03:15:53;;;;;;;5.07;4.57;;;;;;;;;;5078788;28;20432;-73
2021/05/25 03:18:19;;;;;;;5.68;4.95;;;;;;;;;;5077291;28;20176;-74
2021/05/25 03:20:48;;;;;;;5.85;5.35;;;;;;;;;;5062119;28;20231;-73
2021/05/25 03:23:14;;;;;;;5.25;4.75;;;;;;;;;;5070158;28;20181;-73
2021/05/25 03:25:41;;;;;;;5.20;4.80;;;;;;;;;;5054340;28;20235;-74
2021/05/25 03:28:08;;;;;;;6.45;4.85;;;;;;;;;;5067948;28;20172;-75
2021/05/25 03:30:35;;;;;;;5.35;4.95;;;;;;;;;;5053872;28;20203;-73
2021/05/25 03:33:01;;;;;;;5.70;5.00;;;;;;;;;;5066701;28;20176;-74
2021/05/25 03:35:28;;;;;;;6.67;6.13;;;;;;;;;;5063031;28;20195;-76
2021/05/25 03:37:54;;;;;;;7.38;6.63;;;;;;;;;;5073422;28;20411;-74
2021/05/25 03:40:20;;;;;;;7.07;6.35;;;;;;;;;;5066479;28;20676;-74
2021/05/25 03:42:48;;;;;;;7.18;6.55;;;;;;;;;;5079236;28;20183;-73
2021/05/25 03:45:14;;;;;;;8.35;7.55;;;;;;;;;;5066990;28;20217;-74
2021/05/25 03:47:40;;;;;;;7.85;7.05;;;;;;;;;;5066313;28;20172;-75
2021/05/25 03:50:07;;;;;;;6.70;6.03;;;;;;;;;;5053412;28;20196;-72
2021/05/25 03:52:34;;;;;;;7.10;6.38;;;;;;;;;;5053716;28;20219;-76
2021/05/25 03:55:02;;;;;;;5.70;5.30;;;;;;;;;;5065070;28;20601;-74
2021/05/25 03:59:54;;;;;;;5.53;5.13;;;;;;;;;;5074819;28;20206;-73
2021/05/25 04:02:20;;;;;;;5.57;5.03;;;;;;;;;;5061898;28;20267;-74
2021/05/25 04:04:46;;;;;;;5.75;5.25;;;;;;;;;;5062141;28;20215;-73
2021/05/25 04:07:13;;;;;;;6.07;5.57;;;;;;;;;;5058050;28;20660;-75
2021/05/25 04:09:39;;;;;;;5.80;5.30;;;;;;;;;;5060254;28;20661;-74
2021/05/25 04:12:05;;;;;;;5.25;4.35;;;;;;;;;;5058580;28;20523;-76
2021/05/25 04:14:31;;;;;;;5.45;4.95;;;;;;;;;;5069922;28;20189;-75
2021/05/25 04:16:57;;;;;;;4.77;4.37;;;;;;;;;;5078629;28;20176;-76
2021/05/25 04:19:23;;;;;;;5.13;4.72;;;;;;;;;;5064431;28;20454;-73
2021/05/25 04:21:49;;;;;;;4.55;4.15;;;;;;;;;;5068115;28;20314;-75
2021/05/25 04:24:15;;;;;;;4.65;4.25;;;;;;;;;;5067548;28;20196;-73
2021/05/25 04:26:41;;;;;;;4.32;3.92;;;;;;;;;;5066273;28;20259;-75
2021/05/25 04:29:08;;;;;;;8.35;5.13;;;;;;;;;;5067541;28;20173;-74
2021/05/25 04:31:34;;;;;;;4.50;4.20;;;;;;;;;;5059712;28;20630;-73
2021/05/25 04:34:00;;;;;;;4.72;4.30;;;;;;;;;;5058044;28;20172;-75
2021/05/25 04:36:26;;;;;;;6.03;3.90;;;;;;;;;;5072968;28;20495;-75
2021/05/25 04:38:52;;;;;;;5.35;4.85;;;;;;;;;;5072827;28;20656;-73
2021/05/25 04:41:18;;;;;;;4.30;3.97;;;;;;;;;;5068705;28;20206;-75
2021/05/25 04:43:44;;;;;;;4.10;3.80;;;;;;;;;;5054657;28;20226;-76
2021/05/25 04:46:10;;;;;;;3.80;3.50;;;;;;;;;;5069931;28;20176;-74
2021/05/25 04:48:36;;;;;;;4.90;4.50;;;;;;;;;;5057805;28;20414;-74
2021/05/25 04:51:02;;;;;;;5.40;4.85;;;;;;;;;;5052587;28;20242;-74
2021/05/25 04:53:28;;;;;;;4.80;4.40;;;;;;;;;;5060254;28;20180;-74
2021/05/25 04:55:54;;;;;;;5.30;4.80;;;;;;;;;;5065608;28;20188;-75
2021/05/25 04:58:20;;;;;;;4.93;4.53;;;;;;;;;;5065557;28;20175;-73
2021/05/25 05:00:46;;;;;;;5.10;4.57;;;;;;;;;;5074982;28;20196;-77
2021/05/25 05:03:12;;;;;;;4.70;4.30;;;;;;;;;;5061272;28;20249;-75
2021/05/25 05:05:38;;;;;;;4.18;3.53;;;;;;;;;;5078229;28;20559;-74
2021/05/25 05:08:08;;;;;;;4.85;4.40;;;;;;;;;;5071037;28;20194;-74
2021/05/25 05:10:34;;;;;;;4.55;4.15;;;;;;;;;;5072744;28;20253;-72
2021/05/25 05:13:02;;;;;;;4.75;4.25;;;;;;;;;;5071398;28;20204;-77
2021/05/25 05:15:30;;;;;;;4.57;4.03;;;;;;;;;;5071582;28;20263;-75
2021/05/25 05:17:56;;;;;;;4.65;4.25;;;;;;;;;;5074512;28;20180;-73
2021/05/25 05:20:22;;;;;;;4.65;4.25;;;;;;;;;;5059030;28;20281;-73
2021/05/25 05:22:48;;;;;;;5.20;4.80;;;;;;;;;;5054844;28;20614;-74
2021/05/25 05:25:14;;;;;;;5.15;4.75;;;;;;;;;;5062065;28;20208;-73
2021/05/25 05:27:40;;;;;;;5.85;4.35;;;;;;;;;;5062716;28;20220;-74
2021/05/25 05:30:07;;;;;;;4.95;4.55;;;;;;;;;;5060454;28;20561;-78
2021/05/25 05:32:33;;;;;;;5.50;4.95;;;;;;;;;;5060245;28;20212;-77
2021/05/25 05:34:59;;;;;;;6.15;5.30;;;;;;;;;;5061989;28;20180;-75
2021/05/25 05:37:25;;;;;;;6.13;5.57;;;;;;;;;;5065541;28;20184;-74
2021/05/25 05:39:52;;;;;;;5.63;5.22;;;;;;;;;;5066643;28;20665;-73
2021/05/25 05:42:18;;;;;;;6.47;5.85;;;;;;;;;;5063682;28;20691;-76
2021/05/25 05:44:44;;;;;;;6.88;5.20;;;;;;;;;;5058968;28;20197;-74
2021/05/25 05:47:10;;;;;;;7.05;5.40;;;;;;;;;;5071967;28;20168;-75
2021/05/25 05:49:38;;;;;;;6.90;6.30;;;;;;;;;;5058236;28;20189;-76
2021/05/25 05:52:05;;;;;;;6.30;5.80;;;;;;;;;;5055922;28;20184;-75
2021/05/25 05:54:31;;;;;;;6.78;6.18;;;;;;;;;;5059066;28;20263;-75
2021/05/25 05:56:57;;;;;;;6.95;6.30;;;;;;;;;;5093839;28;20187;-73
2021/05/25 05:59:23;;;;;;;7.45;6.78;;;;;;;;;;5061024;28;20250;-72
2021/05/25 06:01:49;;;;;;;6.75;6.22;;;;;;;;;;5082006;28;20179;-75
2021/05/25 06:04:15;;;;;;;9.10;7.83;;;;;;;;;;5080074;28;20219;-75
2021/05/25 06:06:41;;;;;;;8.15;7.30;;;;;;;;;;5055599;28;20740;-74
2021/05/25 06:09:07;;;;;;;8.35;7.55;;;;;;;;;;5064377;28;20181;-73
2021/05/25 06:11:33;;;;;;;9.02;8.20;;;;;;;;;;5071048;28;20184;-74
2021/05/25 06:13:59;;;;;;;9.82;8.95;;;;;;;;;;5061639;28;20188;-75
2021/05/25 06:16:25;;;;;;;10.18;9.27;;;;;;;;;;5084674;28;20194;-74
2021/05/25 06:18:51;;;;;;;9.32;8.63;;;;;;;;;;5066915;28;20181;-74
2021/05/25 06:21:18;;;;;;;9.98;9.15;;;;;;;;;;5055325;28;20227;-72
2021/05/25 06:23:44;;;;;;;9.48;8.57;;;;;;;;;;5062453;28;20631;-75
2021/05/25 06:26:10;;;;;;;9.27;8.45;;;;;;;;;;5064200;28;20216;-74
2021/05/25 06:28:36;;;;;;;10.30;9.30;;;;;;;;;;5070232;28;20229;-72
2021/05/25 06:31:02;;;;;;;11.77;8.90;;;;;;;;;;5075045;28;20678;-74
2021/05/25 06:33:28;;;;;;;9.55;8.55;;;;;;;;;;5065799;28;20187;-74
2021/05/25 06:35:54;;;;;;;9.35;8.55;;;;;;;;;;5075161;28;20176;-76
2021/05/25 06:38:20;;;;;;;8.75;7.97;;;;;;;;;;5073832;28;20189;-73
2021/05/25 06:40:46;;;;;;;9.30;8.38;;;;;;;;;;5069759;28;20204;-76
2021/05/25 06:43:12;;;;;;;8.70;7.90;;;;;;;;;;5057097;28;20212;-78
2021/05/25 06:45:39;;;;;;;8.88;8.18;;;;;;;;;;5063182;28;20207;-78
2021/05/25 06:48:05;;;;;;;8.63;7.80;;;;;;;;;;5065109;28;20180;-74
2021/05/25 06:50:32;;;;;;;9.57;8.40;;;;;;;;;;5062225;28;20207;-76
2021/05/25 06:52:58;;;;;;;9.25;8.30;;;;;;;;;;5064918;28;20184;-73
2021/05/25 06:55:24;;;;;;;7.35;6.78;;;;;;;;;;5059044;28;20180;-76
2021/05/25 06:57:50;;;;;;;7.07;6.57;;;;;;;;;;5070184;28;20230;-75
2021/05/25 07:00:16;;;;;;;7.28;6.50;;;;;;;;;;5063303;28;20431;-77
2021/05/25 07:02:43;;;;;;;7.60;6.90;;;;;;;;;;5050716;28;20603;-77
2021/05/25 07:05:09;;;;;;;6.55;6.05;;;;;;;;;;5055984;28;20263;-78
2021/05/25 07:07:35;;;;;;;5.93;5.53;;;;;;;;;;5051389;28;20554;-77
2021/05/25 07:10:01;;;;;;;5.97;5.50;;;;;;;;;;5067662;28;20203;-74
2021/05/25 07:12:27;;;;;;;5.60;5.10;;;;;;;;;;5053120;28;20197;-74
2021/05/25 07:14:53;;;;;;;4.55;4.25;;;;;;;;;;5066403;28;20183;-75
2021/05/25 07:17:20;;;;;;;5.30;4.90;;;;;;;;;;5057156;28;20184;-75
2021/05/25 07:19:46;;;;;;;7.28;5.20;;;;;;;;;;5059003;28;20255;-75
2021/05/25 07:22:12;;;;;;;5.40;5.00;;;;;;;;;;5062661;28;20180;-75
2021/05/25 07:24:38;;;;;;;5.85;5.40;;;;;;;;;;5051098;28;20648;-75
2021/05/25 07:27:05;;;;;;;5.75;5.25;;;;;;;;;;5069351;28;20188;-74
2021/05/25 07:29:31;;;;;;;5.38;4.97;;;;;;;;;;5070340;28;20192;-74
2021/05/25 07:31:57;;;;;;;5.50;5.00;;;;;;;;;;5064841;28;20227;-75
2021/05/25 07:34:23;;;;;;;5.65;5.25;;;;;;;;;;5060015;28;20549;-73
2021/05/25 07:36:49;;;;;;;5.55;4.97;;;;;;;;;;5071219;28;20474;-74
2021/05/25 07:39:16;;;;;;;4.88;4.47;;;;;;;;;;5058405;28;20200;-74
2021/05/25 07:41:42;;;;;;;5.72;5.05;;;;;;;;;;5062767;28;20184;-74
2021/05/25 07:44:08;;;;;;;5.47;4.97;;;;;;;;;;5062519;28;20725;-75
2021/05/25 07:46:34;;;;;;;5.80;5.30;;;;;;;;;;5054257;28;20192;-75
2021/05/25 07:49:00;;;;;;;5.00;4.60;;;;;;;;;;5084840;28;20190;-75
2021/05/25 07:51:26;;;;;;;4.85;4.45;;;;;;;;;;5059508;28;20175;-74
2021/05/25 07:53:52;;;;;;;4.45;4.05;;;;;;;;;;5065111;28;20212;-74
2021/05/25 07:56:18;;;;;;;3.75;3.45;;;;;;;;;;5051805;28;20856;-76
2021/05/25 07:58:45;;;;;;;3.55;3.25;;;;;;;;;;5069366;28;20191;-75
2021/05/25 08:01:11;;;;;;;3.30;3.00;;;;;;;;;;5069059;28;20204;-75
2021/05/25 08:03:37;;;;;;;5.00;3.20;;;;;;;;;;5057073;28;20189;-75
2021/05/25 08:06:04;;;;;;;4.25;3.90;;;;;;;;;;5055583;28;20906;-75
2021/05/25 08:08:30;;;;;;;4.00;3.60;;;;;;;;;;5063683;28;20398;-71
2021/05/25 08:10:57;;;;;;;4.40;3.95;;;;;;;;;;5071699;28;20534;-77
2021/05/25 08:13:24;;;;;;;3.85;3.55;;;;;;;;;;5072421;28;20202;-75
2021/05/25 08:15:51;;;;;;;3.70;3.40;;;;;;;;;;5082091;28;20179;-76
2021/05/25 08:21:22;;;;;;;4.20;3.10;;;;;;;;;;5010291;28;20201;-75
2021/05/25 08:23:48;;;;;;;3.15;2.70;;;;;;;;;;5057371;28;20259;-73
2021/05/25 08:26:14;;;;;;;8.10;3.10;;;;;;;;;;5049048;28;20201;-75
2021/05/25 08:28:40;;;;;;;3.25;2.95;;;;;;;;;;5072384;28;20179;-75
2021/05/25 08:31:06;;;;;;;3.60;3.05;;;;;;;;;;5049885;28;20201;-74
2021/05/25 08:33:32;;;;;;;3.20;2.88;;;;;;;;;;5073451;28;20649;-74
2021/05/25 08:35:58;;;;;;;4.85;3.15;;;;;;;;;;5059129;28;20179;-75
2021/05/25 08:38:24;;;;;;;4.13;3.53;;;;;;;;;;5072745;28;20223;-74
2021/05/25 08:40:52;;;;;;;3.78;3.40;;;;;;;;;;5061252;28;20195;-75
2021/05/25 08:43:18;;;;;;;4.30;3.90;;;;;;;;;;5049156;28;20196;-73
2021/05/25 08:45:44;;;;;;;4.25;3.85;;;;;;;;;;5072873;28;20202;-76
2021/05/25 08:48:11;;;;;;;4.72;4.40;;;;;;;;;;5077322;28;20175;-75
2021/05/25 08:50:37;;;;;;;4.82;4.43;;;;;;;;;;5062879;28;20231;-75
2021/05/25 08:53:04;;;;;;;5.25;4.72;;;;;;;;;;5060924;28;20283;-75
2021/05/25 08:55:31;;;;;;;5.13;4.82;;;;;;;;;;5076833;28;20175;-74
2021/05/25 08:57:58;;;;;;;5.85;4.47;;;;;;;;;;5055251;28;20203;-76
2021/05/25 09:00:27;;;;;;;5.00;4.60;;;;;;;;;;5073057;28;20907;-75
2021/05/25 09:02:54;;;;;;;5.40;5.00;;;;;;;;;;5052882;28;20215;-76
2021/05/25 09:05:21;;;;;;;5.75;5.25;;;;;;;;;;5061822;28;20684;-76
2021/05/25 09:07:49;;;;;;;5.85;5.25;;;;;;;;;;5061679;28;20188;-76
2021/05/25 09:10:17;;;;;;;6.18;5.60;;;;;;;;;;5064595;28;20204;-75
2021/05/25 09:12:45;;;;;;;4.78;4.38;;;;;;;;;;5064733;28;20181;-75
2021/05/25 09:15:11;;;;;;;5.43;5.03;;;;;;;;;;5069024;28;20689;-74
2021/05/25 09:17:38;;;;;;;7.07;5.68;;;;;;;;;;5078074;28;20221;-75
2021/05/25 09:20:05;;;;;;;5.25;4.85;;;;;;;;;;5079046;28;20676;-74
2021/05/25 09:22:39;;;;;;;5.38;4.88;;;;;;;;;;5069916;28;20179;-74
2021/05/25 09:25:06;;;;;;;5.32;4.90;;;;;;;;;;5062815;28;20208;-75
2021/05/25 09:27:38;;;;;;;5.97;5.38;;;;;;;;;;5063349;28;20175;-74
2021/05/25 09:30:23;;;;;;;5.85;5.32;;;;;;;;;;5067511;28;20211;-75
2021/05/25 09:32:51;;;;;;;6.78;5.70;;;;;;;;;;5067073;28;20715;-74
2021/05/25 09:35:21;;;;;;;6.35;5.78;;;;;;;;;;5073014;28;20545;-73
2021/05/25 09:37:48;;;;;;;6.00;5.50;;;;;;;;;;5065352;28;20203;-75
2021/05/25 09:40:16;;;;;;;5.93;5.32;;;;;;;;;;5052111;28;20207;-76
2021/05/25 09:42:42;;;;;;;5.85;5.18;;;;;;;;;;5060101;28;20233;-75
2021/05/25 09:45:11;;;;;;;5.50;5.00;;;;;;;;;;5062962;28;20639;-74
2021/05/25 09:47:42;;;;;;;5.95;4.90;;;;;;;;;;5055219;28;20427;-74
2021/05/25 09:50:10;;;;;;;5.78;5.20;;;;;;;;;;5055522;28;20257;-75
2021/05/25 09:52:36;;;;;;;5.73;4.80;;;;;;;;;;5059348;28;20176;-76
2021/05/25 09:55:04;;;;;;;4.50;4.10;;;;;;;;;;5071997;28;20402;-74
2021/05/25 09:57:51;;;;;;;4.78;4.00;;;;;;;;;;5055474;28;20517;-73
2021/05/25 10:00:31;;;;;;;4.60;3.57;;;;;;;;;;5064201;28;20564;-73
2021/05/25 10:03:06;;;;;;;4.60;3.85;;;;;;;;;;5062918;28;20421;-74
2021/05/25 10:05:32;;;;;;;4.10;3.30;;;;;;;;;;5059889;28;20707;-74
2021/05/25 10:08:01;;;;;;;6.20;5.60;;;;;;;;;;5067126;28;20430;-75
2021/05/25 10:10:28;;;;;;;6.10;5.17;;;;;;;;;;5053773;28;20435;-74
2021/05/25 10:12:55;;;;;;;5.05;4.55;;;;;;;;;;5060732;28;20417;-74
2021/05/25 10:15:23;;;;;;;5.03;4.53;;;;;;;;;;5067360;28;20280;-74
2021/05/25 10:18:07;;;;;;;5.00;4.50;;;;;;;;;;5083322;28;20194;-74
2021/05/25 10:20:33;;;;;;;6.53;5.20;;;;;;;;;;5072635;28;20450;-75
2021/05/25 10:23:00;;;;;;;5.78;4.93;;;;;;;;;;5059085;28;20819;-75
2021/05/25 10:25:28;;;;;;;7.72;6.05;;;;;;;;;;5051463;28;20211;-72
2021/05/25 10:27:54;;;;;;;6.50;5.80;;;;;;;;;;5057035;28;20196;-72
2021/05/25 10:30:23;;;;;;;6.95;6.22;;;;;;;;;;5053827;28;20197;-74
2021/05/25 10:32:49;;;;;;;6.85;6.15;;;;;;;;;;5078935;28;20172;-72
2021/05/25 10:35:20;;;;;;;7.30;5.93;;;;;;;;;;5068514;28;20173;-75
2021/05/25 10:38:05;;;;;;;6.15;5.20;;;;;;;;;;5081949;28;20572;-75
2021/05/25 10:40:37;;;;;;;6.13;5.30;;;;;;;;;;5077685;28;20672;-75
2021/05/25 10:43:22;;;;;;;5.20;4.70;;;;;;;;;;5076322;28;20188;-76
2021/05/25 10:45:48;;;;;;;5.47;4.43;;;;;;;;;;5076689;28;20243;-74
2021/05/25 10:48:15;;;;;;;6.87;3.57;;;;;;;;;;5071017;28;20214;-74
2021/05/25 10:50:49;;;;;;;4.43;3.40;;;;;;;;;;5083352;28;20853;-75
2021/05/25 10:53:15;;;;;;;5.07;3.03;;;;;;;;;;5066659;28;20457;-74
2021/05/25 10:55:43;;;;;;;5.23;2.70;;;;;;;;;;5071055;28;20432;-74
2021/05/25 10:58:19;;;;;;;4.47;3.17;;;;;;;;;;5074252;28;20546;-75
2021/05/25 11:00:45;;;;;;;3.50;2.50;;;;;;;;;;5074889;28;20469;-75
2021/05/25 11:03:11;;;;;;;3.00;2.60;;;;;;;;;;5076794;28;20454;-74
2021/05/25 11:05:38;;;;;;;4.73;3.20;;;;;;;;;;5088040;28;20465;-74
2021/05/25 11:08:11;;;;;;;4.80;2.77;;;;;;;;;;5059544;28;20420;-74
2021/05/25 11:10:38;;;;;;;4.20;3.00;;;;;;;;;;5061771;28;20536;-73
2021/05/25 11:13:17;;;;;;;4.50;3.17;;;;;;;;;;5068829;28;20433;-70
2021/05/25 11:16:02;;;;;;;3.40;3.10;;;;;;;;;;5077864;28;20429;-75
2021/05/25 11:18:41;;;;;;;3.00;2.70;;;;;;;;;;5076981;28;20612;-76
2021/05/25 11:21:20;;;;;;;4.00;3.43;;;;;;;;;;5070320;28;20438;-72
2021/05/25 11:23:50;;;;;;;3.70;2.90;;;;;;;;;;5064654;28;20407;-72
2021/05/25 11:26:34;;;;;;;3.47;3.10;;;;;;;;;;5069830;28;21123;-70
2021/05/25 11:29:22;;;;;;;3.10;2.53;;;;;;;;;;5065957;28;20417;-72
2021/05/25 11:31:49;;;;;;;2.77;2.57;;;;;;;;;;5076018;28;20411;-71
2021/05/25 11:34:16;;;;;;;3.23;2.60;;;;;;;;;;5069625;28;20413;-72
2021/05/25 11:36:42;;;;;;;2.73;2.30;;;;;;;;;;5069779;28;20442;-74
2021/05/25 11:39:09;;;;;;;3.43;2.30;;;;;;;;;;5067268;28;20520;-74
2021/05/25 11:41:35;;;;;;;3.20;2.40;;;;;;;;;;5069495;28;20434;-78
2021/05/25 11:44:02;;;;;;;2.93;2.50;;;;;;;;;;5072304;28;21226;-73
2021/05/25 11:46:45;;;;;;;2.57;2.13;;;;;;;;;;5069055;28;20999;-72
2021/05/25 11:49:11;;;;;;;3.53;2.10;;;;;;;;;;5067722;28;20919;-75
2021/05/25 11:51:38;;;;;;;4.40;2.90;;;;;;;;;;5069543;28;20475;-76
2021/05/25 11:54:10;;;;;;;3.03;2.50;;;;;;;;;;5069752;28;20426;-75
2021/05/25 11:56:37;;;;;;;2.57;2.20;;;;;;;;;;5071399;28;20476;-76
2021/05/25 11:59:04;;;;;;;3.73;2.20;;;;;;;;;;5060324;28;20412;-75
2021/05/25 12:02:02;;;;;;;3.27;2.20;;;;;;;;;;5069608;28;20410;-77
2021/05/25 12:04:30;;;;;;;2.47;2.00;;;;;;;;;;5042158;28;20523;-76
2021/05/25 12:07:00;;;;;;;2.73;2.43;;;;;;;;;;5067864;28;20842;-74
2021/05/25 12:09:27;;;;;;;3.40;2.60;;;;;;;;;;5072237;28;20437;-74
2021/05/25 12:11:57;;;;;;;2.93;2.47;;;;;;;;;;5076801;28;20461;-74
2021/05/25 12:14:28;;;;;;;3.47;2.40;;;;;;;;;;5068434;28;20436;-72
2021/05/25 12:16:58;;;;;;;3.10;2.43;;;;;;;;;;5068787;28;20417;-74
2021/05/25 12:19:25;;;;;;;3.67;2.37;;;;;;;;;;5071401;28;20462;-74
2021/05/25 12:21:59;;;;;;;3.60;2.43;;;;;;;;;;5074033;28;20433;-77
2021/05/25 12:24:29;;;;;;;2.40;2.10;;;;;;;;;;5067665;28;20462;-77
2021/05/25 12:26:56;;;;;;;4.03;2.10;;;;;;;;;;5070247;28;20553;-77
2021/05/25 12:29:22;;;;;;;3.73;2.90;;;;;;;;;;5072800;28;20446;-76
2021/05/25 12:31:49;;;;;;;2.90;2.60;;;;;;;;;;5077769;28;20811;-74
2021/05/25 12:34:18;;;;;;;3.33;2.93;;;;;;;;;;5067460;28;20430;-74
2021/05/25 12:36:58;;;;;;;3.47;3.00;;;;;;;;;;5066137;28;20426;-76
2021/05/25 12:39:33;;;;;;;4.90;2.47;;;;;;;;;;5062574;28;20426;-74
2021/05/25 12:41:59;;;;;;;4.63;3.17;;;;;;;;;;5064522;28;21244;-75
2021/05/25 12:44:29;;;;;;;3.90;2.87;;;;;;;;;;5068522;28;20454;-74
2021/05/25 12:46:58;;;;;;;4.43;3.47;;;;;;;;;;5072174;28;20920;-73
2021/05/25 12:49:31;;;;;;;7.27;3.37;;;;;;;;;;5069785;28;20468;-76
2021/05/25 12:52:16;;;;;;;3.53;3.20;;;;;;;;;;5058559;28;20951;-75
2021/05/25 12:55:03;;;;;;;3.73;2.47;;;;;;;;;;5085794;28;20450;-74
2021/05/25 12:57:50;;;;;;;2.57;2.23;;;;;;;;;;5058059;28;20429;-75
2021/05/25 13:00:25;;;;;;;3.78;2.35;;;;;;;;;;5050283;28;20436;-75
2021/05/25 13:02:52;;;;;;;3.47;3.03;;;;;;;;;;5048681;28;20575;-75
2021/05/25 13:05:22;;;;;;;3.22;2.60;;;;;;;;;;5070716;28;20246;-74
2021/05/25 13:07:52;;;;;;;2.70;2.30;;;;;;;;;;5072794;28;20175;-76
2021/05/25 13:10:24;;;;;;;3.38;2.40;;;;;;;;;;5048702;28;20209;-75
2021/05/25 13:12:50;;;;;;;2.97;2.10;;;;;;;;;;5059000;28;20280;-75
2021/05/25 13:15:16;;;;;;;4.05;2.30;;;;;;;;;;5068867;28;20193;-74
2021/05/25 13:17:52;;;;;;;3.10;2.10;;;;;;;;;;5062305;28;20213;-76
2021/05/25 13:20:24;;;;;;;2.50;1.98;;;;;;;;;;5063870;28;20274;-76
2021/05/25 13:22:50;;;;;;;2.38;1.98;;;;;;;;;;5067674;28;20171;-76
2021/05/25 13:25:17;;;;;;;3.20;2.10;;;;;;;;;;5053565;28;21037;-77
2021/05/25 13:27:52;;;;;;;2.40;1.80;;;;;;;;;;5081612;28;20189;-73
2021/05/25 13:30:30;;;;;;;2.50;2.20;;;;;;;;;;5052550;28;20208;-76
2021/05/25 13:32:56;;;;;;;2.50;1.80;;;;;;;;;;5071808;28;20172;-77
2021/05/25 13:35:22;;;;;;;2.58;1.95;;;;;;;;;;5065639;28;20585;-73
2021/05/25 13:37:48;;;;;;;3.15;2.50;;;;;;;;;;5058923;28;20181;-74
2021/05/25 13:40:15;;;;;;;3.00;2.40;;;;;;;;;;5068340;28;20934;-74
2021/05/25 13:42:41;;;;;;;4.20;2.67;;;;;;;;;;5066203;28;20480;-74
2021/05/25 13:45:07;;;;;;;3.55;3.00;;;;;;;;;;5076943;28;20204;-74
2021/05/25 13:47:33;;;;;;;4.47;3.80;;;;;;;;;;5052063;28;20209;-75
2021/05/25 13:49:59;;;;;;;4.47;4.07;;;;;;;;;;5064036;28;20196;-76
2021/05/25 13:52:25;;;;;;;4.80;4.40;;;;;;;;;;5060261;28;20454;-74
2021/05/25 13:54:52;;;;;;;5.23;4.70;;;;;;;;;;5051685;28;21017;-76
2021/05/25 13:57:24;;;;;;;5.93;5.13;;;;;;;;;;5054194;28;20430;-74
2021/05/25 14:02:28;;;;;;;5.70;5.13;;;;;;;;;;5073517;28;20607;-75
2021/05/25 14:04:54;;;;;;;5.60;4.70;;;;;;;;;;5051174;28;20483;-75
2021/05/25 14:07:23;;;;;;;6.73;6.13;;;;;;;;;;5056093;28;20441;-73
2021/05/25 14:09:49;;;;;;;7.35;6.53;;;;;;;;;;5085480;28;20797;-74
2021/05/25 14:12:15;;;;;;;21.00;7.93;;;;;;;;;;5069575;28;20228;-72
2021/05/25 14:14:41;;;;;;;9.18;8.25;;;;;;;;;;5072880;28;20450;-71
2021/05/25 14:17:07;;;;;;;8.40;7.60;;;;;;;;;;5081542;28;20211;-74
2021/05/25 14:19:33;;;;;;;8.47;7.77;;;;;;;;;;5063788;28;20830;-73
2021/05/25 14:21:59;;;;;;;9.05;6.80;;;;;;;;;;5056515;28;20434;-73
2021/05/25 14:24:25;;;;;;;8.00;7.10;;;;;;;;;;5058742;28;20181;-73
2021/05/25 14:26:51;;;;;;;8.07;6.85;;;;;;;;;;5078081;28;20983;-75
2021/05/25 14:29:17;;;;;;;7.40;6.27;;;;;;;;;;5061045;28;20208;-75
2021/05/25 14:31:45;;;;;;;6.43;5.70;;;;;;;;;;5063132;28;20431;-74
2021/05/25 14:34:11;;;;;;;6.47;5.88;;;;;;;;;;5066439;28;20180;-73
2021/05/25 14:36:37;;;;;;;6.88;6.32;;;;;;;;;;5052370;28;20180;-77
2021/05/25 14:39:03;;;;;;;6.57;5.63;;;;;;;;;;5074039;28;20179;-74
2021/05/25 14:41:30;;;;;;;7.57;6.88;;;;;;;;;;5076041;28;20535;-73
2021/05/25 14:43:56;;;;;;;5.70;5.20;;;;;;;;;;5066378;28;20177;-75
2021/05/25 14:46:22;;;;;;;5.80;5.30;;;;;;;;;;5058759;28;20747;-74
2021/05/25 14:48:48;;;;;;;6.68;5.55;;;;;;;;;;5079148;28;20246;-76
2021/05/25 14:51:14;;;;;;;6.70;5.00;;;;;;;;;;5065255;28;20677;-74
2021/05/25 14:53:46;;;;;;;3.90;3.10;;;;;;;;;;5071399;28;20825;-73
2021/05/25 14:56:36;;;;;;;3.70;3.40;;;;;;;;;;5069993;28;20592;-75